createdAt,value
2022-10-07T00:00:54.225Z,12.07
2022-10-07T00:03:22.206Z,12.03
2022-10-07T00:06:19.917Z,12.02
2022-10-07T00:08:52.010Z,11.94
2022-10-07T00:11:24.507Z,11.91
2022-10-07T00:13:57.340Z,11.87
2022-10-07T00:16:26.244Z,11.81
2022-10-07T00:18:56.502Z,11.73
2022-10-07T00:21:25.192Z,11.72
2022-10-07T00:23:52.395Z,11.70
2022-10-07T00:26:21.735Z,11.69
2022-10-07T00:28:49.200Z,11.70
2022-10-07T00:31:21.252Z,11.68
2022-10-07T00:33:48.854Z,11.68
2022-10-07T00:36:23.729Z,11.67
2022-10-07T00:39:02.598Z,11.65
2022-10-07T00:41:44.885Z,11.66
2022-10-07T00:44:36.586Z,11.65
2022-10-07T00:47:21.819Z,11.65
2022-10-07T00:50:01.112Z,11.70
2022-10-07T00:52:31.314Z,11.72
2022-10-07T00:55:00.935Z,11.73
2022-10-07T00:57:30.226Z,11.77
2022-10-07T00:59:57.408Z,11.80
2022-10-07T01:02:25.440Z,11.83
2022-10-07T01:04:54.580Z,11.85
2022-10-07T01:07:21.829Z,11.86
2022-10-07T01:09:51.650Z,11.86
2022-10-07T01:12:37.108Z,11.82
2022-10-07T01:15:08.279Z,11.81
2022-10-07T01:17:38.753Z,11.81
2022-10-07T01:20:05.420Z,11.77
2022-10-07T01:23:12.125Z,11.74
2022-10-07T01:25:52.841Z,11.74
2022-10-07T01:28:32.143Z,11.76
2022-10-07T01:31:01.720Z,11.77
2022-10-07T01:33:32.943Z,11.82
2022-10-07T01:36:12.824Z,11.79
2022-10-07T01:38:45.468Z,11.75
2022-10-07T01:41:15.146Z,11.69
2022-10-07T01:43:44.737Z,11.60
2022-10-07T01:46:18.469Z,11.59
2022-10-07T01:48:49.028Z,11.57
2022-10-07T01:51:19.236Z,11.58
2022-10-07T01:53:47.299Z,11.63
2022-10-07T01:56:33.133Z,11.69
2022-10-07T01:59:25.091Z,11.74
2022-10-07T02:02:01.098Z,11.74
2022-10-07T02:04:46.870Z,11.72
2022-10-07T02:07:29.485Z,11.65
2022-10-07T02:10:08.209Z,11.62
2022-10-07T02:12:41.645Z,11.63
2022-10-07T02:15:17.152Z,11.63
2022-10-07T02:17:55.218Z,11.64
2022-10-07T02:20:27.009Z,11.67
2022-10-07T02:22:57.505Z,11.67
2022-10-07T02:25:28.253Z,11.66
2022-10-07T02:27:57.884Z,11.66
2022-10-07T02:30:25.834Z,11.64
2022-10-07T02:32:56.529Z,11.62
2022-10-07T02:35:33.084Z,11.60
2022-10-07T02:38:05.753Z,11.64
2022-10-07T02:40:39.922Z,11.63
2022-10-07T02:43:36.491Z,11.62
2022-10-07T02:46:12.002Z,11.59
2022-10-07T02:48:58.907Z,11.55
2022-10-07T02:51:36.561Z,11.57
2022-10-07T02:54:04.884Z,11.57
2022-10-07T02:56:36.529Z,11.60
2022-10-07T02:59:07.375Z,11.61
2022-10-07T03:01:39.941Z,11.62
2022-10-07T03:04:07.293Z,11.61
2022-10-07T03:06:35.941Z,11.56
2022-10-07T03:09:03.894Z,11.53
2022-10-07T03:11:31.125Z,11.45
2022-10-07T03:13:58.483Z,11.30
2022-10-07T03:16:25.573Z,11.22
2022-10-07T03:18:52.368Z,11.25
2022-10-07T03:21:33.549Z,11.16
2022-10-07T03:24:05.244Z,11.03
2022-10-07T03:26:37.889Z,11.08
2022-10-07T03:29:05.501Z,11.02
2022-10-07T03:31:32.357Z,10.96
2022-10-07T03:34:00.625Z,10.91
2022-10-07T03:36:28.239Z,10.85
2022-10-07T03:38:55.702Z,10.77
2022-10-07T03:41:24.388Z,10.69
2022-10-07T03:43:57.522Z,10.61
2022-10-07T03:46:25.449Z,10.63
2022-10-07T03:48:52.641Z,10.57
2022-10-07T03:51:21.788Z,10.46
2022-10-07T03:53:49.354Z,10.38
2022-10-07T03:56:16.713Z,10.29
2022-10-07T03:58:43.939Z,10.25
2022-10-07T04:01:15.208Z,10.17
2022-10-07T04:03:52.555Z,10.09
2022-10-07T04:06:19.832Z,10.03
2022-10-07T04:08:52.061Z,9.98
2022-10-07T04:11:19.105Z,9.91
2022-10-07T04:13:46.664Z,9.88
2022-10-07T04:16:14.017Z,9.83
2022-10-07T04:18:42.070Z,9.77
2022-10-07T04:21:09.996Z,9.74
2022-10-07T04:23:37.481Z,9.73
2022-10-07T04:26:11.700Z,9.78
2022-10-07T04:28:42.882Z,9.83
2022-10-07T04:31:17.232Z,9.90
2022-10-07T04:33:51.921Z,10.01
2022-10-07T04:36:25.398Z,10.12
2022-10-07T04:39:00.028Z,10.28
2022-10-07T04:41:31.241Z,10.54
2022-10-07T04:43:58.286Z,10.82
2022-10-07T04:46:28.762Z,11.15
2022-10-07T04:49:10.630Z,11.48
2022-10-07T04:51:37.776Z,11.72
2022-10-07T04:54:05.058Z,11.94
2022-10-07T04:56:38.367Z,11.94
2022-10-07T04:59:07.848Z,11.78
2022-10-07T05:01:36.491Z,11.57
2022-10-07T05:04:03.698Z,11.39
2022-10-07T05:06:32.926Z,11.30
2022-10-07T05:08:59.850Z,11.38
2022-10-07T05:11:27.004Z,11.51
2022-10-07T05:14:01.918Z,11.91
2022-10-07T05:16:30.404Z,12.31
2022-10-07T05:18:58.084Z,12.69
2022-10-07T05:21:25.003Z,13.04
2022-10-07T05:23:52.384Z,13.34
2022-10-07T05:26:24.904Z,13.68
2022-10-07T05:28:56.616Z,14.05
2022-10-07T05:31:29.995Z,14.38
2022-10-07T05:34:00.722Z,14.86
2022-10-07T05:36:28.316Z,15.29
2022-10-07T05:38:58.156Z,15.48
2022-10-07T05:41:30.962Z,15.90
2022-10-07T05:44:01.365Z,16.31
2022-10-07T05:46:28.322Z,16.44
2022-10-07T05:48:58.072Z,16.69
2022-10-07T05:51:30.716Z,17.14
2022-10-07T05:53:59.174Z,17.16
2022-10-07T05:56:32.708Z,17.30
2022-10-07T05:58:59.558Z,17.70
2022-10-07T06:01:29.165Z,17.87
2022-10-07T06:03:58.800Z,17.89
2022-10-07T06:06:30.256Z,18.06
2022-10-07T06:09:19.952Z,18.52
2022-10-07T06:12:06.309Z,18.81
2022-10-07T06:14:35.002Z,19.35
2022-10-07T06:17:01.903Z,19.51
2022-10-07T06:19:29.083Z,19.85
2022-10-07T06:21:59.500Z,20.16
2022-10-07T06:24:27.172Z,20.31
2022-10-07T06:26:55.972Z,20.60
2022-10-07T06:29:24.010Z,21.17
2022-10-07T06:31:51.122Z,21.50
2022-10-07T06:34:19.332Z,21.13
2022-10-07T06:36:46.498Z,21.88
2022-10-07T06:39:16.429Z,22.17
2022-10-07T06:41:43.766Z,22.25
2022-10-07T06:44:36.643Z,22.94
2022-10-07T06:47:07.768Z,23.05
2022-10-07T06:49:38.816Z,23.08
2022-10-07T06:52:05.643Z,23.34
2022-10-07T06:54:34.152Z,23.45
2022-10-07T06:57:00.895Z,23.51
2022-10-07T06:59:28.226Z,23.17
2022-10-07T07:02:01.999Z,24.14
2022-10-07T07:04:32.233Z,24.59
2022-10-07T07:06:59.087Z,25.37
2022-10-07T07:09:26.149Z,25.98
2022-10-07T07:11:56.425Z,26.53
2022-10-07T07:14:35.096Z,26.82
2022-10-07T07:17:09.947Z,26.88
2022-10-07T07:19:37.151Z,27.06
2022-10-07T07:22:04.140Z,27.31
2022-10-07T07:24:31.076Z,27.68
2022-10-07T07:26:58.047Z,27.79
2022-10-07T07:29:27.590Z,27.48
2022-10-07T07:31:59.949Z,27.88
2022-10-07T07:34:30.292Z,28.00
2022-10-07T07:36:57.506Z,28.26
2022-10-07T07:39:29.863Z,28.39
2022-10-07T07:42:06.155Z,28.37
2022-10-07T07:44:34.878Z,28.66
2022-10-07T07:47:03.977Z,28.67
2022-10-07T07:49:32.305Z,28.85
2022-10-07T07:51:59.933Z,28.67
2022-10-07T07:54:31.250Z,28.13
2022-10-07T07:56:58.176Z,27.99
2022-10-07T07:59:28.178Z,28.26
2022-10-07T08:01:57.871Z,28.63
2022-10-07T08:04:25.042Z,28.88
2022-10-07T08:06:52.341Z,29.16
2022-10-07T08:09:19.808Z,29.22
2022-10-07T08:11:48.281Z,29.50
2022-10-07T08:14:17.585Z,29.93
2022-10-07T08:16:47.410Z,30.20
2022-10-07T08:19:15.371Z,30.53
2022-10-07T08:21:42.558Z,30.85
2022-10-07T08:24:14.643Z,31.08
2022-10-07T08:26:41.471Z,31.44
2022-10-07T08:29:13.527Z,31.62
2022-10-07T08:31:42.642Z,31.97
2022-10-07T08:34:10.993Z,32.35
2022-10-07T08:36:38.331Z,32.80
2022-10-07T08:39:06.032Z,32.75
2022-10-07T08:41:39.453Z,32.61
2022-10-07T08:44:18.048Z,32.46
2022-10-07T08:46:57.662Z,32.38
2022-10-07T08:49:36.078Z,32.88
2022-10-07T08:52:25.596Z,32.31
2022-10-07T08:54:53.234Z,32.52
2022-10-07T08:57:32.428Z,32.21
2022-10-07T09:00:03.828Z,32.28
2022-10-07T09:02:46.868Z,32.49
2022-10-07T09:05:26.946Z,32.38
2022-10-07T09:08:01.216Z,32.37
2022-10-07T09:10:49.614Z,32.38
2022-10-07T09:13:20.658Z,33.20
2022-10-07T09:16:19.880Z,34.02
2022-10-07T09:18:53.960Z,34.16
2022-10-07T09:21:25.578Z,34.15
2022-10-07T09:23:57.218Z,34.33
2022-10-07T09:26:27.002Z,34.25
2022-10-07T09:28:53.864Z,34.36
2022-10-07T09:31:23.824Z,34.14
2022-10-07T09:33:53.029Z,34.18
2022-10-07T09:36:20.249Z,34.51
2022-10-07T09:38:50.402Z,34.74
2022-10-07T09:41:31.029Z,35.02
2022-10-07T09:44:16.335Z,35.11
2022-10-07T09:46:53.336Z,35.13
2022-10-07T09:49:29.136Z,35.26
2022-10-07T09:52:06.831Z,35.19
2022-10-07T09:54:37.089Z,35.24
2022-10-07T09:57:06.083Z,35.60
2022-10-07T09:59:35.539Z,35.68
2022-10-07T10:02:21.017Z,35.61
2022-10-07T10:04:53.840Z,35.58
2022-10-07T10:07:29.676Z,35.25
2022-10-07T10:10:21.661Z,34.84
2022-10-07T10:12:50.009Z,35.14
2022-10-07T10:15:26.027Z,35.34
2022-10-07T10:17:57.146Z,35.52
2022-10-07T10:20:23.787Z,35.77
2022-10-07T10:22:51.672Z,35.78
2022-10-07T10:25:51.378Z,35.93
2022-10-07T10:28:30.053Z,36.41
2022-10-07T10:31:06.854Z,36.85
2022-10-07T10:33:44.662Z,36.68
2022-10-07T10:36:27.102Z,36.57
2022-10-07T10:39:04.242Z,36.61
2022-10-07T10:41:43.230Z,36.64
2022-10-07T10:44:20.389Z,36.32
2022-10-07T10:47:07.464Z,36.18
2022-10-07T10:50:19.223Z,35.91
2022-10-07T10:53:33.397Z,35.96
2022-10-07T10:56:21.620Z,35.76
2022-10-07T10:59:05.047Z,34.82
2022-10-07T11:01:37.678Z,35.26
2022-10-07T11:04:25.861Z,35.52
2022-10-07T11:07:04.867Z,35.45
2022-10-07T11:09:46.653Z,35.53
2022-10-07T11:12:34.232Z,35.49
2022-10-07T11:15:13.816Z,35.27
2022-10-07T11:17:40.893Z,35.20
2022-10-07T11:20:29.396Z,35.06
2022-10-07T11:23:02.687Z,35.00
2022-10-07T11:25:36.818Z,35.12
2022-10-07T11:28:26.541Z,34.99
2022-10-07T11:31:05.325Z,35.14
2022-10-07T11:33:43.247Z,35.07
2022-10-07T11:36:16.311Z,34.88
2022-10-07T11:38:44.326Z,34.69
2022-10-07T11:41:16.569Z,34.64
2022-10-07T11:43:49.668Z,34.64
2022-10-07T11:46:22.254Z,34.61
2022-10-07T11:48:59.760Z,34.60
2022-10-07T11:51:35.151Z,34.54
2022-10-07T11:54:06.474Z,34.51
2022-10-07T11:56:49.464Z,34.45
2022-10-07T11:59:38.244Z,34.48
2022-10-07T12:02:30.630Z,34.57
2022-10-07T12:04:59.653Z,34.34
2022-10-07T12:07:35.197Z,34.20
2022-10-07T12:10:01.972Z,34.18
2022-10-07T12:12:47.725Z,34.05
2022-10-07T12:15:33.254Z,33.97
2022-10-07T12:18:04.491Z,33.86
2022-10-07T12:20:45.136Z,33.67
2022-10-07T12:23:20.840Z,33.46
2022-10-07T12:26:03.102Z,32.71
2022-10-07T12:28:37.021Z,31.49
2022-10-07T12:31:16.301Z,30.28
2022-10-07T12:33:45.993Z,28.99
2022-10-07T12:36:18.740Z,27.68
2022-10-07T12:39:08.361Z,26.71
2022-10-07T12:41:45.317Z,25.85
2022-10-07T12:44:36.310Z,24.90
2022-10-07T12:47:08.457Z,24.21
2022-10-07T12:49:37.618Z,23.50
2022-10-07T12:52:12.241Z,22.99
2022-10-07T12:54:47.974Z,22.41
2022-10-07T12:57:23.255Z,22.01
2022-10-07T13:00:15.054Z,21.64
2022-10-07T13:02:58.742Z,21.27
2022-10-07T13:06:02.972Z,20.95
2022-10-07T13:08:42.180Z,20.67
2022-10-07T13:11:28.561Z,20.46
2022-10-07T13:14:19.162Z,20.24
2022-10-07T13:17:18.281Z,20.04
2022-10-07T13:19:51.233Z,19.91
2022-10-07T13:22:19.194Z,19.80
2022-10-07T13:24:49.954Z,19.67
2022-10-07T13:27:35.017Z,19.50
2022-10-07T13:30:04.410Z,19.36
2022-10-07T13:32:34.325Z,19.16
2022-10-07T13:35:29.985Z,19.00
2022-10-07T13:37:57.116Z,18.99
2022-10-07T13:40:35.825Z,18.89
2022-10-07T13:43:08.103Z,18.81
2022-10-07T13:45:45.113Z,18.75
2022-10-07T13:48:22.220Z,18.70
2022-10-07T13:50:50.907Z,18.62
2022-10-07T13:53:31.969Z,18.50
2022-10-07T13:56:05.723Z,18.45
2022-10-07T13:58:33.636Z,18.38
2022-10-07T14:01:03.989Z,18.31
2022-10-07T14:03:30.828Z,18.18
2022-10-07T14:05:57.821Z,18.12
2022-10-07T14:08:29.458Z,18.01
2022-10-07T14:10:59.633Z,17.96
2022-10-07T14:13:29.314Z,17.90
2022-10-07T14:15:57.918Z,17.70
2022-10-07T14:18:27.636Z,17.72
2022-10-07T14:20:57.843Z,17.66
2022-10-07T14:23:31.504Z,17.56
2022-10-07T14:26:06.723Z,17.41
2022-10-07T14:28:38.000Z,17.36
2022-10-07T14:31:23.444Z,17.27
2022-10-07T14:34:16.844Z,17.17
2022-10-07T14:37:10.241Z,17.03
2022-10-07T14:39:38.568Z,16.93
2022-10-07T14:42:10.451Z,16.83
2022-10-07T14:44:37.650Z,16.71
2022-10-07T14:47:13.320Z,16.60
2022-10-07T14:49:42.339Z,16.46
2022-10-07T14:52:21.604Z,16.34
2022-10-07T14:54:49.117Z,16.20
2022-10-07T14:57:15.865Z,16.02
2022-10-07T14:59:42.645Z,15.86
2022-10-07T15:02:12.743Z,15.68
2022-10-07T15:04:40.414Z,15.48
2022-10-07T15:07:07.606Z,15.28
2022-10-07T15:09:34.522Z,15.10
2022-10-07T15:12:01.382Z,14.91
2022-10-07T15:14:28.372Z,14.71
2022-10-07T15:16:58.663Z,14.51
2022-10-07T15:19:26.489Z,14.33
2022-10-07T15:21:53.852Z,14.14
2022-10-07T15:24:20.691Z,13.96
2022-10-07T15:26:47.455Z,13.78
2022-10-07T15:29:15.182Z,13.60
2022-10-07T15:31:43.223Z,13.38
2022-10-07T15:34:10.701Z,13.19
2022-10-07T15:36:37.889Z,13.02
2022-10-07T15:39:05.117Z,12.83
2022-10-07T15:41:37.436Z,12.64
2022-10-07T15:44:11.670Z,12.46
2022-10-07T15:46:38.778Z,12.36
2022-10-07T15:49:05.844Z,12.22
2022-10-07T15:51:32.766Z,12.04
2022-10-07T15:53:59.841Z,11.85
2022-10-07T15:56:26.757Z,11.73
2022-10-07T15:58:53.492Z,11.62
2022-10-07T16:01:20.917Z,11.51
2022-10-07T16:03:49.140Z,11.40
2022-10-07T16:06:20.303Z,11.27
2022-10-07T16:08:48.060Z,11.13
2022-10-07T16:11:15.223Z,10.99
2022-10-07T16:13:44.294Z,10.82
2022-10-07T16:16:32.683Z,10.64
2022-10-07T16:19:00.769Z,10.44
2022-10-07T16:21:33.256Z,10.31
2022-10-07T16:24:06.406Z,10.25
2022-10-07T16:26:35.746Z,10.16
2022-10-07T16:29:23.616Z,10.08
2022-10-07T16:31:55.926Z,9.95
2022-10-07T16:34:25.711Z,9.83
2022-10-07T16:36:52.975Z,9.75
2022-10-07T16:39:21.487Z,9.70
2022-10-07T16:41:49.611Z,9.64
2022-10-07T16:44:16.497Z,9.57
2022-10-07T16:46:43.828Z,9.50
2022-10-07T16:49:17.979Z,9.44
2022-10-07T16:51:46.044Z,9.34
2022-10-07T16:54:16.021Z,9.24
2022-10-07T16:56:48.565Z,9.19
2022-10-07T16:59:24.113Z,9.12
2022-10-07T17:01:56.093Z,8.99
2022-10-07T17:04:24.544Z,8.83
2022-10-07T17:06:51.683Z,8.69
2022-10-07T17:09:18.706Z,8.56
2022-10-07T17:11:45.671Z,8.43
2022-10-07T17:14:21.129Z,8.35
2022-10-07T17:16:53.433Z,8.27
2022-10-07T17:19:23.279Z,8.12
2022-10-07T17:21:51.227Z,8.02
2022-10-07T17:24:20.057Z,7.97
2022-10-07T17:26:47.435Z,7.92
2022-10-07T17:29:18.136Z,7.89
2022-10-07T17:31:48.262Z,7.87
2022-10-07T17:34:16.249Z,7.86
2022-10-07T17:36:43.945Z,7.87
2022-10-07T17:39:11.332Z,7.88
2022-10-07T17:41:38.890Z,7.86
2022-10-07T17:44:11.675Z,7.81
2022-10-07T17:46:39.563Z,7.75
2022-10-07T17:49:08.799Z,7.69
2022-10-07T17:51:37.287Z,7.66
2022-10-07T17:54:05.900Z,7.56
2022-10-07T17:56:34.301Z,7.46
2022-10-07T17:59:01.998Z,7.36
2022-10-07T18:01:32.787Z,7.24
2022-10-07T18:04:07.932Z,7.16
2022-10-07T18:06:36.597Z,7.10
2022-10-07T18:09:13.514Z,7.08
2022-10-07T18:11:58.873Z,7.08
2022-10-07T18:14:44.426Z,7.10
2022-10-07T18:17:11.345Z,7.11
2022-10-07T18:19:39.814Z,7.14
2022-10-07T18:22:07.164Z,7.15
2022-10-07T18:24:34.265Z,7.09
2022-10-07T18:27:01.565Z,6.99
2022-10-07T18:29:34.159Z,6.89
2022-10-07T18:32:01.259Z,6.82
2022-10-07T18:34:28.249Z,6.77
2022-10-07T18:36:56.988Z,6.67
2022-10-07T18:39:27.278Z,6.57
2022-10-07T18:41:54.421Z,6.47
2022-10-07T18:44:21.416Z,6.43
2022-10-07T18:46:48.651Z,6.37
2022-10-07T18:49:15.621Z,6.35
2022-10-07T18:51:42.884Z,6.31
2022-10-07T18:54:10.642Z,6.30
2022-10-07T18:56:41.141Z,6.25
2022-10-07T18:59:10.047Z,6.18
2022-10-07T19:01:37.907Z,6.12
2022-10-07T19:04:07.242Z,6.08
2022-10-07T19:06:36.487Z,6.07
2022-10-07T19:09:06.593Z,6.01
2022-10-07T19:11:33.881Z,5.94
2022-10-07T19:14:01.726Z,5.92
2022-10-07T19:16:36.836Z,5.97
2022-10-07T19:19:09.163Z,6.00
2022-10-07T19:21:35.990Z,5.99
2022-10-07T19:24:04.388Z,5.95
2022-10-07T19:26:37.791Z,5.93
2022-10-07T19:29:06.465Z,5.92
2022-10-07T19:31:36.254Z,5.91
2022-10-07T19:34:06.291Z,5.85
2022-10-07T19:36:36.221Z,5.83
2022-10-07T19:39:04.322Z,5.78
2022-10-07T19:41:33.405Z,5.72
2022-10-07T19:44:00.147Z,5.64
2022-10-07T19:46:30.214Z,5.57
2022-10-07T19:48:58.887Z,5.56
2022-10-07T19:51:28.472Z,5.55
2022-10-07T19:53:57.378Z,5.54
2022-10-07T19:56:28.226Z,5.52
2022-10-07T19:59:00.602Z,5.50
2022-10-07T20:01:29.435Z,5.44
2022-10-07T20:03:57.851Z,5.37
2022-10-07T20:06:25.257Z,5.35
2022-10-07T20:08:53.038Z,5.32
2022-10-07T20:11:20.796Z,5.27
2022-10-07T20:13:47.605Z,5.19
2022-10-07T20:16:19.841Z,5.13
2022-10-07T20:18:48.720Z,5.07
2022-10-07T20:21:19.061Z,5.00
2022-10-07T20:23:48.161Z,4.92
2022-10-07T20:26:20.390Z,4.95
2022-10-07T20:28:49.289Z,4.94
2022-10-07T20:31:19.140Z,4.90
2022-10-07T20:33:48.721Z,4.87
2022-10-07T20:36:18.904Z,4.82
2022-10-07T20:39:06.232Z,4.79
2022-10-07T20:41:51.638Z,4.74
2022-10-07T20:44:18.434Z,4.71
2022-10-07T20:46:45.145Z,4.72
2022-10-07T20:49:25.214Z,4.75
2022-10-07T20:51:54.306Z,4.78
2022-10-07T20:54:22.907Z,4.78
2022-10-07T20:56:54.000Z,4.73
2022-10-07T20:59:21.111Z,4.70
2022-10-07T21:01:48.283Z,4.68
2022-10-07T21:04:15.840Z,4.66
2022-10-07T21:06:43.601Z,4.66
2022-10-07T21:09:11.077Z,4.67
2022-10-07T21:11:38.270Z,4.70
2022-10-07T21:14:05.103Z,4.69
2022-10-07T21:16:35.177Z,4.65
2022-10-07T21:19:02.015Z,4.61
2022-10-07T21:21:29.010Z,4.56
2022-10-07T21:23:55.897Z,4.49
2022-10-07T21:26:22.896Z,4.42
2022-10-07T21:28:49.656Z,4.38
2022-10-07T21:31:19.051Z,4.36
2022-10-07T21:33:48.790Z,4.33
2022-10-07T21:36:17.953Z,4.25
2022-10-07T21:38:46.440Z,4.19
2022-10-07T21:41:20.278Z,4.12
2022-10-07T21:43:54.610Z,4.07
2022-10-07T21:46:23.233Z,4.00
2022-10-07T21:48:50.393Z,3.95
2022-10-07T21:51:17.562Z,3.96
2022-10-07T21:53:45.744Z,3.99
2022-10-07T21:56:13.568Z,4.03
2022-10-07T21:58:40.292Z,4.07
2022-10-07T22:01:11.758Z,4.07
2022-10-07T22:03:38.742Z,4.08
2022-10-07T22:06:08.096Z,4.08
2022-10-07T22:08:35.449Z,4.06
2022-10-07T22:11:04.746Z,4.05
2022-10-07T22:13:40.339Z,4.07
2022-10-07T22:16:12.377Z,4.03
2022-10-07T22:18:39.233Z,3.98
2022-10-07T22:21:15.378Z,3.90
2022-10-07T22:23:43.564Z,3.81
2022-10-07T22:26:15.088Z,3.73
2022-10-07T22:28:41.888Z,3.69
2022-10-07T22:31:11.054Z,3.72
2022-10-07T22:33:41.142Z,3.73
2022-10-07T22:36:10.561Z,3.70
2022-10-07T22:38:37.507Z,3.69
2022-10-07T22:41:05.415Z,3.70
2022-10-07T22:43:36.468Z,3.68
2022-10-07T22:46:03.896Z,3.67
2022-10-07T22:48:32.322Z,3.63
2022-10-07T22:51:08.374Z,3.60
2022-10-07T22:53:36.892Z,3.58
2022-10-07T22:56:11.317Z,3.57
2022-10-07T22:58:39.246Z,3.60
2022-10-07T23:01:07.931Z,3.58
2022-10-07T23:03:38.346Z,3.54
2022-10-07T23:06:08.245Z,3.51
2022-10-07T23:08:35.552Z,3.46
2022-10-07T23:11:03.852Z,3.46
2022-10-07T23:13:37.462Z,3.46
2022-10-07T23:16:12.643Z,3.43
2022-10-07T23:18:42.645Z,3.45
2022-10-07T23:21:14.971Z,3.45
2022-10-07T23:23:44.962Z,3.44
2022-10-07T23:26:16.270Z,3.42
2022-10-07T23:28:43.094Z,3.39
2022-10-07T23:31:14.095Z,3.36
2022-10-07T23:33:41.138Z,3.35
2022-10-07T23:36:10.516Z,3.32
2022-10-07T23:38:39.030Z,3.28
2022-10-07T23:41:07.096Z,3.22
2022-10-07T23:43:34.442Z,3.18
2022-10-07T23:46:02.537Z,3.13
2022-10-07T23:48:35.137Z,3.13
2022-10-07T23:51:03.892Z,3.14
2022-10-07T23:53:31.412Z,3.11
2022-10-07T23:55:58.657Z,3.05
2022-10-07T23:58:27.885Z,2.98
